sensor_id;sensor_type;location;lat;lon;timestamp;pressure;altitude;pressure_sealevel;temperature;humidity
51313;BME280;37397;53.226;10.400;2022-12-10T00:01:11;100484.41;;;2.44;72.98
51313;BME280;37397;53.226;10.400;2022-12-10T00:03:38;100485.19;;;2.44;73.01
51313;BME280;37397;53.226;10.400;2022-12-10T00:06:07;100478.78;;;2.44;72.89
51313;BME280;37397;53.226;10.400;2022-12-10T00:08:34;100484.41;;;2.44;72.99
51313;BME280;37397;53.226;10.400;2022-12-10T00:11:06;100483.63;;;2.43;72.92
51313;BME280;37397;53.226;10.400;2022-12-10T00:13:34;100479.22;;;2.42;73.18
51313;BME280;37397;53.226;10.400;2022-12-10T00:16:03;100469.16;;;2.41;72.90
51313;BME280;37397;53.226;10.400;2022-12-10T00:18:30;100477.19;;;2.43;72.93
51313;BME280;37397;53.226;10.400;2022-12-10T00:20:57;100482.03;;;2.42;73.04
51313;BME280;37397;53.226;10.400;2022-12-10T00:23:23;100471.63;;;2.39;72.80
51313;BME280;37397;53.226;10.400;2022-12-10T00:25:50;100483.25;;;2.41;72.83
51313;BME280;37397;53.226;10.400;2022-12-10T00:28:16;100481.28;;;2.38;72.82
51313;BME280;37397;53.226;10.400;2022-12-10T00:30:43;100485.28;;;2.41;72.80
51313;BME280;37397;53.226;10.400;2022-12-10T00:33:09;100476.53;;;2.35;72.86
51313;BME280;37397;53.226;10.400;2022-12-10T00:35:36;100498.91;;;2.42;72.96
51313;BME280;37397;53.226;10.400;2022-12-10T00:38:03;100494.50;;;2.41;73.03
51313;BME280;37397;53.226;10.400;2022-12-10T00:40:29;100497.31;;;2.41;72.89
51313;BME280;37397;53.226;10.400;2022-12-10T00:42:56;100490.91;;;2.41;72.92
51313;BME280;37397;53.226;10.400;2022-12-10T00:45:22;100497.31;;;2.41;72.85
51313;BME280;37397;53.226;10.400;2022-12-10T00:47:49;100486.91;;;2.38;72.87
51313;BME280;37397;53.226;10.400;2022-12-10T00:50:16;100495.75;;;2.40;72.75
51313;BME280;37397;53.226;10.400;2022-12-10T00:52:42;100491.69;;;2.41;72.82
51313;BME280;37397;53.226;10.400;2022-12-10T00:55:08;100490.13;;;2.40;72.80
51313;BME280;37397;53.226;10.400;2022-12-10T00:57:35;100497.31;;;2.41;72.83
51313;BME280;37397;53.226;10.400;2022-12-10T01:00:02;100484.09;;;2.38;72.75
51313;BME280;37397;53.226;10.400;2022-12-10T01:02:28;100492.94;;;2.40;72.76
51313;BME280;37397;53.226;10.400;2022-12-10T01:04:55;100492.94;;;2.40;72.87
51313;BME280;37397;53.226;10.400;2022-12-10T01:07:23;100488.09;;;2.41;72.91
51313;BME280;37397;53.226;10.400;2022-12-10T01:09:49;100498.56;;;2.40;73.02
51313;BME280;37397;53.226;10.400;2022-12-10T01:12:15;100496.53;;;2.41;73.00
51313;BME280;37397;53.226;10.400;2022-12-10T01:14:42;100497.31;;;2.41;72.81
51313;BME280;37397;53.226;10.400;2022-12-10T01:17:08;100499.34;;;2.41;72.91
51313;BME280;37397;53.226;10.400;2022-12-10T01:19:36;100496.53;;;2.41;73.05
51313;BME280;37397;53.226;10.400;2022-12-10T01:22:03;100501.38;;;2.40;72.95
51313;BME280;37397;53.226;10.400;2022-12-10T01:24:30;100498.56;;;2.40;72.89
51313;BME280;37397;53.226;10.400;2022-12-10T01:26:57;100502.94;;;2.41;72.95
51313;BME280;37397;53.226;10.400;2022-12-10T01:29:24;100508.59;;;2.41;73.02
51313;BME280;37397;53.226;10.400;2022-12-10T01:31:53;100506.19;;;2.40;73.09
51313;BME280;37397;53.226;10.400;2022-12-10T01:34:20;100505.41;;;2.39;72.78
51313;BME280;37397;53.226;10.400;2022-12-10T01:36:53;100500.56;;;2.40;73.06
51313;BME280;37397;53.226;10.400;2022-12-10T01:39:21;100500.56;;;2.40;72.87
51313;BME280;37397;53.226;10.400;2022-12-10T01:41:51;100500.56;;;2.40;72.96
51313;BME280;37397;53.226;10.400;2022-12-10T01:46:48;100499.34;;;2.41;72.94
51313;BME280;37397;53.226;10.400;2022-12-10T01:49:18;100504.19;;;2.40;73.15
51313;BME280;37397;53.226;10.400;2022-12-10T01:51:48;100500.56;;;2.40;72.98
51313;BME280;37397;53.226;10.400;2022-12-10T01:54:19;100507.00;;;2.40;72.85
51313;BME280;37397;53.226;10.400;2022-12-10T01:56:50;100505.84;;;2.37;72.92
51313;BME280;37397;53.226;10.400;2022-12-10T01:59:17;100510.25;;;2.39;72.93
51313;BME280;37397;53.226;10.400;2022-12-10T02:01:57;100507.00;;;2.40;72.85
51313;BME280;37397;53.226;10.400;2022-12-10T02:07:00;100505.41;;;2.39;72.96
51313;BME280;37397;53.226;10.400;2022-12-10T02:09:37;100505.41;;;2.39;72.97
51313;BME280;37397;53.226;10.400;2022-12-10T02:12:15;100502.25;;;2.37;73.21
51313;BME280;37397;53.226;10.400;2022-12-10T02:15:00;100508.66;;;2.37;72.81
51313;BME280;37397;53.226;10.400;2022-12-10T02:20:30;100510.69;;;2.37;72.93
51313;BME280;37397;53.226;10.400;2022-12-10T02:23:28;100503.47;;;2.36;72.91
51313;BME280;37397;53.226;10.400;2022-12-10T02:26:11;100505.06;;;2.37;72.99
51313;BME280;37397;53.226;10.400;2022-12-10T02:28:47;100503.03;;;2.37;72.95
51313;BME280;37397;53.226;10.400;2022-12-10T02:31:28;100493.41;;;2.35;73.07
51313;BME280;37397;53.226;10.400;2022-12-10T02:33:58;100496.63;;;2.37;73.09
51313;BME280;37397;53.226;10.400;2022-12-10T02:36:29;100506.63;;;2.38;72.99
51313;BME280;37397;53.226;10.400;2022-12-10T02:39:01;100504.63;;;2.39;72.91
51313;BME280;37397;53.226;10.400;2022-12-10T02:41:35;100509.44;;;2.38;72.89
51313;BME280;37397;53.226;10.400;2022-12-10T02:44:07;100509.09;;;2.36;73.24
51313;BME280;37397;53.226;10.400;2022-12-10T02:46:36;100515.06;;;2.38;72.94
51313;BME280;37397;53.226;10.400;2022-12-10T02:49:07;100515.06;;;2.38;73.02
51313;BME280;37397;53.226;10.400;2022-12-10T02:51:35;100509.44;;;2.38;72.98
51313;BME280;37397;53.226;10.400;2022-12-10T02:54:04;100518.28;;;2.40;72.90
51313;BME280;37397;53.226;10.400;2022-12-10T02:56:46;100516.75;;;2.35;73.01
51313;BME280;37397;53.226;10.400;2022-12-10T03:04:52;100521.88;;;2.41;73.08
51313;BME280;37397;53.226;10.400;2022-12-10T03:07:27;100515.91;;;2.39;72.91
51313;BME280;37397;53.226;10.400;2022-12-10T03:10:01;100518.28;;;2.40;73.08
51313;BME280;37397;53.226;10.400;2022-12-10T03:12:32;100511.84;;;2.40;73.06
51313;BME280;37397;53.226;10.400;2022-12-10T03:15:05;100512.66;;;2.40;73.07
51313;BME280;37397;53.226;10.400;2022-12-10T03:17:32;100512.25;;;2.38;73.16
51313;BME280;37397;53.226;10.400;2022-12-10T03:20:00;100515.91;;;2.39;72.95
51313;BME280;37397;53.226;10.400;2022-12-10T03:22:28;100525.03;;;2.43;73.06
51313;BME280;37397;53.226;10.400;2022-12-10T03:24:57;100524.25;;;2.42;73.00
51313;BME280;37397;53.226;10.400;2022-12-10T03:27:26;100532.72;;;2.42;73.03
51313;BME280;37397;53.226;10.400;2022-12-10T03:29:57;100529.91;;;2.42;73.01
51313;BME280;37397;53.226;10.400;2022-12-10T03:32:26;100524.25;;;2.42;72.97
51313;BME280;37397;53.226;10.400;2022-12-10T03:34:56;100527.16;;;2.39;72.93
51313;BME280;37397;53.226;10.400;2022-12-10T03:37:25;100533.06;;;2.44;72.89
51313;BME280;37397;53.226;10.400;2022-12-10T03:39:53;100532.72;;;2.42;73.07
51313;BME280;37397;53.226;10.400;2022-12-10T03:42:20;100533.50;;;2.43;72.96
51313;BME280;37397;53.226;10.400;2022-12-10T03:44:49;100523.91;;;2.40;73.03
51313;BME280;37397;53.226;10.400;2022-12-10T03:47:16;100521.81;;;2.44;72.95
51313;BME280;37397;53.226;10.400;2022-12-10T03:49:43;100533.88;;;2.45;72.98
51313;BME280;37397;53.226;10.400;2022-12-10T03:52:10;100522.63;;;2.45;72.94
51313;BME280;37397;53.226;10.400;2022-12-10T03:54:37;100520.66;;;2.42;73.08
51313;BME280;37397;53.226;10.400;2022-12-10T03:57:04;100520.66;;;2.42;73.02
51313;BME280;37397;53.226;10.400;2022-12-10T03:59:30;100513.44;;;2.41;72.99
51313;BME280;37397;53.226;10.400;2022-12-10T04:01:57;100520.22;;;2.43;72.86
51313;BME280;37397;53.226;10.400;2022-12-10T04:04:24;100525.88;;;2.43;72.98
51313;BME280;37397;53.226;10.400;2022-12-10T04:06:51;100518.97;;;2.44;73.05
51313;BME280;37397;53.226;10.400;2022-12-10T04:09:17;100521.44;;;2.42;72.94
51313;BME280;37397;53.226;10.400;2022-12-10T04:11:44;100514.16;;;2.45;72.79
51313;BME280;37397;53.226;10.400;2022-12-10T04:14:11;100516.59;;;2.43;72.92
51313;BME280;37397;53.226;10.400;2022-12-10T04:16:57;100518.97;;;2.44;73.01
51313;BME280;37397;53.226;10.400;2022-12-10T04:19:24;100523.06;;;2.43;72.87
51313;BME280;37397;53.226;10.400;2022-12-10T04:21:51;100524.63;;;2.44;72.83
51313;BME280;37397;53.226;10.400;2022-12-10T04:24:37;100514.22;;;2.41;73.13
51313;BME280;37397;53.226;10.400;2022-12-10T04:27:24;100517.41;;;2.43;72.84
51313;BME280;37397;53.226;10.400;2022-12-10T04:29:52;100518.97;;;2.44;72.85
51313;BME280;37397;53.226;10.400;2022-12-10T04:32:20;100521.44;;;2.42;72.99
51313;BME280;37397;53.226;10.400;2022-12-10T04:34:47;100514.22;;;2.41;72.99
51313;BME280;37397;53.226;10.400;2022-12-10T04:37:14;100516.16;;;2.44;72.86
51313;BME280;37397;53.226;10.400;2022-12-10T04:39:41;100521.81;;;2.44;72.95
51313;BME280;37397;53.226;10.400;2022-12-10T04:42:07;100514.22;;;2.41;72.63
51313;BME280;37397;53.226;10.400;2022-12-10T04:44:35;100518.97;;;2.44;72.82
51313;BME280;37397;53.226;10.400;2022-12-10T04:47:03;100524.63;;;2.44;72.91
51313;BME280;37397;53.226;10.400;2022-12-10T04:49:30;100517.41;;;2.43;72.81
51313;BME280;37397;53.226;10.400;2022-12-10T04:51:57;100525.44;;;2.45;72.82
51313;BME280;37397;53.226;10.400;2022-12-10T04:54:24;100528.69;;;2.43;72.76
51313;BME280;37397;53.226;10.400;2022-12-10T04:56:52;100531.06;;;2.45;73.02
51313;BME280;37397;53.226;10.400;2022-12-10T04:59:19;100525.44;;;2.45;72.86
51313;BME280;37397;53.226;10.400;2022-12-10T05:01:45;100527.09;;;2.42;72.83
51313;BME280;37397;53.226;10.400;2022-12-10T05:04:15;100534.66;;;2.45;72.99
51313;BME280;37397;53.226;10.400;2022-12-10T05:06:42;100535.88;;;2.44;72.69
51313;BME280;37397;53.226;10.400;2022-12-10T05:09:10;100532.72;;;2.42;72.78
51313;BME280;37397;53.226;10.400;2022-12-10T05:11:37;100536.69;;;2.45;72.93
51313;BME280;37397;53.226;10.400;2022-12-10T05:14:04;100524.69;;;2.41;72.91
51313;BME280;37397;53.226;10.400;2022-12-10T05:16:32;100536.69;;;2.45;72.85
51313;BME280;37397;53.226;10.400;2022-12-10T05:19:00;100542.75;;;2.43;72.89
51313;BME280;37397;53.226;10.400;2022-12-10T05:21:28;100537.47;;;2.45;72.63
51313;BME280;37397;53.226;10.400;2022-12-10T05:24:14;100532.72;;;2.42;72.77
51313;BME280;37397;53.226;10.400;2022-12-10T05:26:41;100539.94;;;2.43;72.70
51313;BME280;37397;53.226;10.400;2022-12-10T05:29:07;100534.78;;;2.38;72.72
51313;BME280;37397;53.226;10.400;2022-12-10T05:31:34;100534.31;;;2.43;72.77
51313;BME280;37397;53.226;10.400;2022-12-10T05:34:01;100536.75;;;2.41;72.76
51313;BME280;37397;53.226;10.400;2022-12-10T05:36:29;100520.72;;;2.38;72.88
51313;BME280;37397;53.226;10.400;2022-12-10T05:38:56;100534.31;;;2.43;72.67
51313;BME280;37397;53.226;10.400;2022-12-10T05:41:26;100524.69;;;2.41;72.82
51313;BME280;37397;53.226;10.400;2022-12-10T05:43:55;100531.13;;;2.41;72.70
51313;BME280;37397;53.226;10.400;2022-12-10T05:46:28;100542.34;;;2.45;72.59
51313;BME280;37397;53.226;10.400;2022-12-10T05:48:56;100532.72;;;2.42;72.74
51313;BME280;37397;53.226;10.400;2022-12-10T05:51:30;100527.16;;;2.39;72.70
51313;BME280;37397;53.226;10.400;2022-12-10T05:53:57;100538.41;;;2.39;72.61
51313;BME280;37397;53.226;10.400;2022-12-10T05:56:25;100529.16;;;2.38;72.94
51313;BME280;37397;53.226;10.400;2022-12-10T05:58:54;100535.19;;;2.40;72.67
51313;BME280;37397;53.226;10.400;2022-12-10T06:01:25;100540.00;;;2.40;72.90
51313;BME280;37397;53.226;10.400;2022-12-10T06:03:52;100535.19;;;2.40;72.78
51313;BME280;37397;53.226;10.400;2022-12-10T06:06:24;100531.97;;;2.38;72.74
51313;BME280;37397;53.226;10.400;2022-12-10T06:08:51;100541.59;;;2.41;72.71
51313;BME280;37397;53.226;10.400;2022-12-10T06:11:18;100529.53;;;2.40;72.80
51313;BME280;37397;53.226;10.400;2022-12-10T06:13:44;100530.31;;;2.41;72.82
51313;BME280;37397;53.226;10.400;2022-12-10T06:16:12;100535.19;;;2.40;72.85
51313;BME280;37397;53.226;10.400;2022-12-10T06:18:40;100533.94;;;2.41;72.75
51313;BME280;37397;53.226;10.400;2022-12-10T06:21:09;100539.56;;;2.41;72.76
51313;BME280;37397;53.226;10.400;2022-12-10T06:23:37;100542.38;;;2.41;72.88
51313;BME280;37397;53.226;10.400;2022-12-10T06:26:12;100540.81;;;2.40;72.78
51313;BME280;37397;53.226;10.400;2022-12-10T06:28:39;100547.66;;;2.39;72.83
51313;BME280;37397;53.226;10.400;2022-12-10T06:31:06;100552.44;;;2.42;72.76
51313;BME280;37397;53.226;10.400;2022-12-10T06:33:33;100554.06;;;2.40;72.84
51313;BME280;37397;53.226;10.400;2022-12-10T06:36:03;100560.09;;;2.42;72.68
51313;BME280;37397;53.226;10.400;2022-12-10T06:38:29;100559.28;;;2.41;72.72
51313;BME280;37397;53.226;10.400;2022-12-10T06:40:55;100571.34;;;2.42;72.72
51313;BME280;37397;53.226;10.400;2022-12-10T06:43:22;100566.50;;;2.42;72.82
51313;BME280;37397;53.226;10.400;2022-12-10T06:45:48;100556.88;;;2.40;72.55
51313;BME280;37397;53.226;10.400;2022-12-10T06:48:15;100567.38;;;2.39;72.75
51313;BME280;37397;53.226;10.400;2022-12-10T06:50:41;100563.81;;;2.35;72.76
51313;BME280;37397;53.226;10.400;2022-12-10T06:53:08;100567.78;;;2.37;72.68
51313;BME280;37397;53.226;10.400;2022-12-10T06:55:36;100571.03;;;2.36;72.64
51313;BME280;37397;53.226;10.400;2022-12-10T06:58:04;100581.88;;;2.37;72.66
51313;BME280;37397;53.226;10.400;2022-12-10T07:00:31;100581.44;;;2.39;72.59
51313;BME280;37397;53.226;10.400;2022-12-10T07:02:57;100584.63;;;2.41;72.68
51313;BME280;37397;53.226;10.400;2022-12-10T07:05:24;100590.25;;;2.41;72.85
51313;BME280;37397;53.226;10.400;2022-12-10T07:07:50;100585.88;;;2.40;72.61
51313;BME280;37397;53.226;10.400;2022-12-10T07:10:17;100585.88;;;2.40;72.55
51313;BME280;37397;53.226;10.400;2022-12-10T07:12:44;100590.25;;;2.41;72.68
51313;BME280;37397;53.226;10.400;2022-12-10T07:15:10;100598.69;;;2.41;72.61
51313;BME280;37397;53.226;10.400;2022-12-10T07:17:40;100588.69;;;2.40;72.61
51313;BME280;37397;53.226;10.400;2022-12-10T07:20:06;100587.06;;;2.39;72.84
51313;BME280;37397;53.226;10.400;2022-12-10T07:22:39;100596.31;;;2.40;72.62
51313;BME280;37397;53.226;10.400;2022-12-10T07:25:06;100589.53;;;2.37;72.60
51313;BME280;37397;53.226;10.400;2022-12-10T07:27:33;100597.91;;;2.41;72.51
51313;BME280;37397;53.226;10.400;2022-12-10T07:29:59;100595.94;;;2.37;72.65
51313;BME280;37397;53.226;10.400;2022-12-10T07:32:29;100599.56;;;2.38;72.73
51313;BME280;37397;53.226;10.400;2022-12-10T07:34:55;100597.13;;;2.40;72.67
51313;BME280;37397;53.226;10.400;2022-12-10T07:37:22;100593.94;;;2.38;72.63
51313;BME280;37397;53.226;10.400;2022-12-10T07:39:48;100601.16;;;2.39;72.77
51313;BME280;37397;53.226;10.400;2022-12-10T07:42:14;100599.94;;;2.40;72.68
51313;BME280;37397;53.226;10.400;2022-12-10T07:44:41;100603.19;;;2.39;72.53
51313;BME280;37397;53.226;10.400;2022-12-10T07:47:14;100606.78;;;2.39;72.64
51313;BME280;37397;53.226;10.400;2022-12-10T07:49:41;100607.16;;;2.41;72.60
51313;BME280;37397;53.226;10.400;2022-12-10T07:52:08;100602.75;;;2.40;72.75
51313;BME280;37397;53.226;10.400;2022-12-10T07:54:35;100599.56;;;2.38;72.75
51313;BME280;37397;53.226;10.400;2022-12-10T07:57:01;100601.16;;;2.39;72.96
51313;BME280;37397;53.226;10.400;2022-12-10T07:59:28;100596.38;;;2.36;72.56
51313;BME280;37397;53.226;10.400;2022-12-10T08:01:54;100602.81;;;2.36;72.78
51313;BME280;37397;53.226;10.400;2022-12-10T08:04:21;100607.66;;;2.36;72.73
51313;BME280;37397;53.226;10.400;2022-12-10T08:06:47;100615.22;;;2.39;72.77
51313;BME280;37397;53.226;10.400;2022-12-10T08:09:14;100615.59;;;2.41;72.61
51313;BME280;37397;53.226;10.400;2022-12-10T08:11:40;100624.03;;;2.41;72.80
51313;BME280;37397;53.226;10.400;2022-12-10T08:14:07;100619.66;;;2.40;72.69
51313;BME280;37397;53.226;10.400;2022-12-10T08:16:33;100629.31;;;2.39;72.82
51313;BME280;37397;53.226;10.400;2022-12-10T08:19:00;100628.09;;;2.40;72.38
51313;BME280;37397;53.226;10.400;2022-12-10T08:21:30;100634.09;;;2.42;72.56
51313;BME280;37397;53.226;10.400;2022-12-10T08:23:58;100637.34;;;2.41;72.46
51313;BME280;37397;53.226;10.400;2022-12-10T08:26:28;100620.50;;;2.37;72.48
51313;BME280;37397;53.226;10.400;2022-12-10T08:28:55;100646.16;;;2.43;72.79
51313;BME280;37397;53.226;10.400;2022-12-10T08:31:23;100627.78;;;2.34;72.61
51313;BME280;37397;53.226;10.400;2022-12-10T08:33:50;100641.75;;;2.42;72.61
51313;BME280;37397;53.226;10.400;2022-12-10T08:36:17;100648.59;;;2.41;72.40
51313;BME280;37397;53.226;10.400;2022-12-10T08:38:45;100641.38;;;2.40;72.68
51313;BME280;37397;53.226;10.400;2022-12-10T08:41:14;100643.75;;;2.41;72.65
51313;BME280;37397;53.226;10.400;2022-12-10T08:43:42;100655.03;;;2.41;72.65
51313;BME280;37397;53.226;10.400;2022-12-10T08:46:10;100651.00;;;2.42;72.49
51313;BME280;37397;53.226;10.400;2022-12-10T08:48:37;100648.97;;;2.43;72.49
51313;BME280;37397;53.226;10.400;2022-12-10T08:51:04;100651.00;;;2.42;72.58
51313;BME280;37397;53.226;10.400;2022-12-10T08:53:33;100648.97;;;2.43;72.61
51313;BME280;37397;53.226;10.400;2022-12-10T08:55:59;100658.22;;;2.43;72.64
51313;BME280;37397;53.226;10.400;2022-12-10T08:58:26;100646.56;;;2.41;72.56
51313;BME280;37397;53.226;10.400;2022-12-10T09:00:52;100656.25;;;2.40;72.83
51313;BME280;37397;53.226;10.400;2022-12-10T09:03:19;100658.22;;;2.43;72.59
51313;BME280;37397;53.226;10.400;2022-12-10T09:05:45;100631.09;;;2.29;72.81
51313;BME280;37397;53.226;10.400;2022-12-10T09:08:12;100648.66;;;2.37;72.55
51313;BME280;37397;53.226;10.400;2022-12-10T09:10:40;100640.66;;;2.35;72.73
51313;BME280;37397;53.226;10.400;2022-12-10T09:13:07;100658.22;;;2.43;72.34
51313;BME280;37397;53.226;10.400;2022-12-10T09:15:34;100666.25;;;2.45;72.62
51313;BME280;37397;53.226;10.400;2022-12-10T09:18:00;100667.03;;;2.45;72.78
51313;BME280;37397;53.226;10.400;2022-12-10T09:20:27;100667.88;;;2.42;72.72
51313;BME280;37397;53.226;10.400;2022-12-10T09:22:53;100674.22;;;2.46;72.60
51313;BME280;37397;53.226;10.400;2022-12-10T09:25:19;100671.88;;;2.45;72.65
51313;BME280;37397;53.226;10.400;2022-12-10T09:27:48;100675.84;;;2.47;72.67
51313;BME280;37397;53.226;10.400;2022-12-10T09:30:15;100669.84;;;2.45;72.54
51313;BME280;37397;53.226;10.400;2022-12-10T09:32:42;100675.06;;;2.47;72.60
51313;BME280;37397;53.226;10.400;2022-12-10T09:35:08;100671.41;;;2.46;72.78
51313;BME280;37397;53.226;10.400;2022-12-10T09:37:34;100675.84;;;2.47;72.60
51313;BME280;37397;53.226;10.400;2022-12-10T09:40:01;100677.50;;;2.45;72.46
51313;BME280;37397;53.226;10.400;2022-12-10T09:45:36;100679.09;;;2.46;72.41
51313;BME280;37397;53.226;10.400;2022-12-10T09:48:41;100680.75;;;2.43;72.81
51313;BME280;37397;53.226;10.400;2022-12-10T09:51:22;100663.09;;;2.39;72.64
51313;BME280;37397;53.226;10.400;2022-12-10T09:53:51;100675.84;;;2.47;72.50
51313;BME280;37397;53.226;10.400;2022-12-10T09:56:33;100682.25;;;2.48;72.67
51313;BME280;37397;53.226;10.400;2022-12-10T09:59:04;100681.47;;;2.47;72.70
51313;BME280;37397;53.226;10.400;2022-12-10T10:01:38;100677.44;;;2.48;72.74
51313;BME280;37397;53.226;10.400;2022-12-10T10:04:05;100671.00;;;2.48;72.72
51313;BME280;37397;53.226;10.400;2022-12-10T10:06:32;100674.63;;;2.48;72.78
51313;BME280;37397;53.226;10.400;2022-12-10T10:09:01;100676.19;;;2.49;72.37
51313;BME280;37397;53.226;10.400;2022-12-10T10:11:31;100673.38;;;2.49;72.56
51313;BME280;37397;53.226;10.400;2022-12-10T10:14:03;100676.59;;;2.51;72.55
51313;BME280;37397;53.226;10.400;2022-12-10T10:16:36;100670.94;;;2.51;72.42
51313;BME280;37397;53.226;10.400;2022-12-10T10:19:26;100676.19;;;2.49;72.59
51313;BME280;37397;53.226;10.400;2022-12-10T10:21:53;100664.50;;;2.51;72.72
51313;BME280;37397;53.226;10.400;2022-12-10T10:24:28;100671.81;;;2.48;72.40
51313;BME280;37397;53.226;10.400;2022-12-10T10:27:09;100669.34;;;2.50;72.39
51313;BME280;37397;53.226;10.400;2022-12-10T10:29:37;100675.34;;;2.52;72.63
51313;BME280;37397;53.226;10.400;2022-12-10T10:32:16;100674.97;;;2.50;72.52
51313;BME280;37397;53.226;10.400;2022-12-10T10:34:57;100671.31;;;2.53;72.61
51313;BME280;37397;53.226;10.400;2022-12-10T10:39:59;100680.53;;;2.54;72.40
51313;BME280;37397;53.226;10.400;2022-12-10T10:42:34;100680.97;;;2.52;72.36
51313;BME280;37397;53.226;10.400;2022-12-10T10:45:04;100679.75;;;2.53;72.28
51313;BME280;37397;53.226;10.400;2022-12-10T10:47:34;100674.47;;;2.55;72.31
51313;BME280;37397;53.226;10.400;2022-12-10T10:50:03;100682.16;;;2.55;72.25
51313;BME280;37397;53.226;10.400;2022-12-10T10:52:36;100684.97;;;2.55;72.31
51313;BME280;37397;53.226;10.400;2022-12-10T10:55:03;100675.72;;;2.54;72.22
51313;BME280;37397;53.226;10.400;2022-12-10T10:57:35;100687.78;;;2.55;72.35
51313;BME280;37397;53.226;10.400;2022-12-10T11:00:10;100682.16;;;2.55;72.09
51313;BME280;37397;53.226;10.400;2022-12-10T11:02:43;100672.91;;;2.54;72.20
51313;BME280;37397;53.226;10.400;2022-12-10T11:05:20;100679.34;;;2.55;71.94
51313;BME280;37397;53.226;10.400;2022-12-10T11:07:57;100673.69;;;2.55;72.20
51313;BME280;37397;53.226;10.400;2022-12-10T11:10:25;100683.00;;;2.52;72.24
51313;BME280;37397;53.226;10.400;2022-12-10T11:12:57;100670.09;;;2.54;72.23
51313;BME280;37397;53.226;10.400;2022-12-10T11:15:36;100679.34;;;2.55;72.07
51313;BME280;37397;53.226;10.400;2022-12-10T11:18:09;100675.72;;;2.54;72.12
51313;BME280;37397;53.226;10.400;2022-12-10T11:21:06;100677.31;;;2.55;71.89
51313;BME280;37397;53.226;10.400;2022-12-10T11:23:42;100671.66;;;2.55;71.95
51313;BME280;37397;53.226;10.400;2022-12-10T11:29:22;100671.31;;;2.53;72.17
51313;BME280;37397;53.226;10.400;2022-12-10T11:37:31;100674.91;;;2.54;72.10
51313;BME280;37397;53.226;10.400;2022-12-10T11:40:24;100667.72;;;2.53;71.92
51313;BME280;37397;53.226;10.400;2022-12-10T11:43:04;100674.13;;;2.53;72.39
51313;BME280;37397;53.226;10.400;2022-12-10T11:46:04;100664.94;;;2.49;71.86
51313;BME280;37397;53.226;10.400;2022-12-10T11:51:52;100678.16;;;2.52;72.04
51313;BME280;37397;53.226;10.400;2022-12-10T11:57:54;100674.97;;;2.50;72.19
51313;BME280;37397;53.226;10.400;2022-12-10T12:00:27;100672.16;;;2.50;72.20
51313;BME280;37397;53.226;10.400;2022-12-10T12:03:03;100665.31;;;2.51;72.22
51313;BME280;37397;53.226;10.400;2022-12-10T12:05:59;100669.34;;;2.50;71.99
51313;BME280;37397;53.226;10.400;2022-12-10T12:08:51;100663.72;;;2.50;72.01
51313;BME280;37397;53.226;10.400;2022-12-10T12:14:12;100668.13;;;2.51;71.78
51313;BME280;37397;53.226;10.400;2022-12-10T12:16:43;100667.72;;;2.53;72.17
51313;BME280;37397;53.226;10.400;2022-12-10T12:19:20;100674.13;;;2.53;71.81
51313;BME280;37397;53.226;10.400;2022-12-10T12:21:49;100670.53;;;2.53;71.87
51313;BME280;37397;53.226;10.400;2022-12-10T12:24:21;100660.84;;;2.54;71.84
51313;BME280;37397;53.226;10.400;2022-12-10T12:27:02;100664.88;;;2.53;71.86
51313;BME280;37397;53.226;10.400;2022-12-10T12:29:41;100661.25;;;2.52;71.52
51313;BME280;37397;53.226;10.400;2022-12-10T12:32:17;100665.69;;;2.53;71.58
51313;BME280;37397;53.226;10.400;2022-12-10T12:37:36;100670.53;;;2.53;71.74
51313;BME280;37397;53.226;10.400;2022-12-10T12:40:15;100668.13;;;2.51;71.62
51313;BME280;37397;53.226;10.400;2022-12-10T12:42:52;100678.16;;;2.52;71.70
51313;BME280;37397;53.226;10.400;2022-12-10T12:45:38;100665.31;;;2.51;71.70
51313;BME280;37397;53.226;10.400;2022-12-10T12:48:32;100674.97;;;2.50;71.38
51313;BME280;37397;53.226;10.400;2022-12-10T12:51:13;100670.19;;;2.47;71.56
51313;BME280;37397;53.226;10.400;2022-12-10T12:53:42;100679.00;;;2.49;71.70
51313;BME280;37397;53.226;10.400;2022-12-10T12:59:10;100678.22;;;2.49;71.63
51313;BME280;37397;53.226;10.400;2022-12-10T13:01:49;100672.59;;;2.49;71.67
51313;BME280;37397;53.226;10.400;2022-12-10T13:04:17;100679.00;;;2.49;71.80
51313;BME280;37397;53.226;10.400;2022-12-10T13:10:08;100673.38;;;2.49;71.61
51313;BME280;37397;53.226;10.400;2022-12-10T13:23:49;100680.69;;;2.47;71.54
51313;BME280;37397;53.226;10.400;2022-12-10T13:26:28;100687.09;;;2.47;71.61
51313;BME280;37397;53.226;10.400;2022-12-10T13:29:10;100684.28;;;2.47;71.87
51313;BME280;37397;53.226;10.400;2022-12-10T13:31:38;100689.13;;;2.47;71.59
51313;BME280;37397;53.226;10.400;2022-12-10T13:34:23;100691.13;;;2.46;71.64
51313;BME280;37397;53.226;10.400;2022-12-10T13:39:36;100687.88;;;2.48;71.58
51313;BME280;37397;53.226;10.400;2022-12-10T13:45:23;100695.97;;;2.46;71.71
51313;BME280;37397;53.226;10.400;2022-12-10T13:50:44;100684.72;;;2.46;71.70
51313;BME280;37397;53.226;10.400;2022-12-10T13:55:49;100690.84;;;2.41;71.76
51313;BME280;37397;53.226;10.400;2022-12-10T14:04:23;100702.91;;;2.41;71.83
51313;BME280;37397;53.226;10.400;2022-12-10T14:06:56;100695.69;;;2.40;71.82
51313;BME280;37397;53.226;10.400;2022-12-10T14:09:30;100698.88;;;2.42;71.63
51313;BME280;37397;53.226;10.400;2022-12-10T14:12:02;100700.91;;;2.42;71.68
51313;BME280;37397;53.226;10.400;2022-12-10T14:14:35;100712.94;;;2.42;71.88
51313;BME280;37397;53.226;10.400;2022-12-10T14:17:06;100713.72;;;2.43;71.80
51313;BME280;37397;53.226;10.400;2022-12-10T14:19:36;100714.56;;;2.43;71.69
51313;BME280;37397;53.226;10.400;2022-12-10T14:22:06;100712.16;;;2.42;71.67